Latest Weather Observations for St Lawrence

IDQ60801

Issued at 10:32 am EST Friday 28 July 2017 (issued every 30 minutes, with the page automatically refreshed every 10 minutes)

About weather observations | Map of weather stations | Latest weather observations for QLD | Other Formats
Station Details ID: 033210 Name: ST LAWRENCE Lat: -22.35 Lon: 149.52 Height: 9.19 m
Data from the previous 72 hours. | See also: Recent months at St Lawrence
Date/Time
EST
Temp
°C
App
Temp
°C
Dew
Point
°C
Rel
Hum
%
Delta-T
°C
Wind Press
QNH
hPa
Press
MSL
hPa
Rain since
9am
mm
Dir  Spd
km/h
Gust
km/h
Spd
kts
Gust
kts
28/10:30am 23.0 22.6 14.0 57 5.2 E 9 17 5 9 1023.7 1023.7 0.0
28/10:00am 21.2 20.8 13.1 60 4.6 S 7 13 4 7 1024.0 1024.0 0.0
28/09:30am 20.4 20.0 12.9 62 4.3 S 7 11 4 6 1024.2 1024.2 0.0
28/09:00am 18.4 17.3 10.5 60 4.2 S 7 11 4 6 1023.9 1023.9 0.0
28/08:30am 16.4 15.6 9.8 65 3.5 SSW 4 7 2 4 1023.7 1023.7 0.0
28/08:00am 13.3 11.9 9.0 75 2.2 WSW 6 7 3 4 1023.4 1023.4 0.0
28/07:30am 11.8 11.1 8.5 80 1.6 SW 2 6 1 3 1023.3 1023.3 0.0
28/07:00am 10.2 8.5 7.6 84 1.2 SW 6 7 3 4 1023.1 1023.1 0.0
28/06:30am 9.7 8.4 7.6 87 1.0 SW 4 6 2 3 1022.9 1022.9 0.0
28/06:00am 9.3 8.7 7.3 87 0.9 CALM 0 0 0 0 1022.8 1022.8 0.0
28/05:30am 9.8 9.4 8.1 89 0.8 CALM 0 0 0 0 1022.7 1022.7 0.0
28/05:00am 9.2 8.6 7.3 88 0.9 CALM 0 0 0 0 1022.5 1022.5 0.0
28/04:30am 9.1 8.4 7.1 87 0.9 CALM 0 0 0 0 1022.4 1022.4 0.0
28/04:00am 9.4 8.5 7.7 89 0.8 SW 2 6 1 3 1022.4 1022.4 0.0
28/03:30am 9.3 7.9 7.4 88 0.9 SW 4 9 2 5 1022.3 1022.3 0.0
28/03:00am 9.7 9.2 7.8 88 0.9 CALM 0 0 0 0 1022.6 1022.6 0.0
28/02:30am 9.7 9.2 7.8 88 0.9 CALM 0 4 0 2 1022.7 1022.7 0.0
28/02:00am 9.9 8.1 7.3 84 1.2 SW 6 7 3 4 1022.6 1022.6 0.0
28/01:30am 11.1 9.3 8.0 81 1.5 S 7 11 4 6 1022.6 1022.6 0.0
28/01:00am 10.5 9.9 7.4 81 1.5 CALM 0 0 0 0 1022.7 1022.7 0.0
28/12:30am 11.8 11.3 7.9 77 1.9 CALM 0 6 0 3 1022.7 1022.7 0.0
28/12:00am 12.9 11.4 8.6 75 2.1 SW 6 7 3 4 1022.8 1022.8 0.0
 
Date/Time
EST
Temp
°C
App
Temp
°C
Dew
Point
°C
Rel
Hum
%
Delta-T
°C
Wind Press
QNH
hPa
Press
MSL
hPa
Rain since
9am
mm
Dir  Spd
km/h
Gust
km/h
Spd
kts
Gust
kts
27/11:30pm 12.9 11.4 8.6 75 2.1 SW 6 6 3 3 1022.8 1022.8 0.0
27/11:00pm 12.8 12.5 8.7 76 2.0 CALM 0 0 0 0 1022.8 1022.8 0.0
27/10:30pm 13.2 11.8 8.7 74 2.3 SW 6 7 3 4 1023.0 1023.0 0.0
27/10:00pm 13.5 12.8 8.6 72 2.4 WSW 2 7 1 4 1023.0 1023.0 0.0
27/09:30pm 13.6 12.8 9.6 77 2.0 WSW 4 7 2 4 1023.0 1023.0 0.0
27/09:00pm 13.5 13.5 9.7 78 1.9 CALM 0 0 0 0 1022.9 1022.9 0.0
27/08:30pm 13.4 13.1 8.7 73 2.4 CALM 0 0 0 0 1022.8 1022.8 0.0
27/08:00pm 14.8 14.3 9.2 69 2.9 SSW 2 6 1 3 1022.7 1022.7 0.0
27/07:30pm 15.3 14.1 9.7 69 2.9 S 6 7 3 4 1022.4 1022.4 0.0
27/07:00pm 16.5 15.4 9.9 65 3.4 SSW 6 7 3 4 1022.0 1022.0 0.0
27/06:30pm 18.7 17.8 10.5 59 4.4 NNE 6 7 3 4 1021.2 1021.2 0.0
27/06:00pm 19.7 18.3 10.9 57 4.8 NNE 9 13 5 7 1020.7 1020.7 0.0
27/05:30pm 21.0 18.6 10.2 50 5.8 NNE 13 17 7 9 1020.4 1020.4 0.0
27/05:00pm 22.7 20.2 9.8 44 7.0 NNE 13 19 7 10 1020.3 1020.3 0.0
27/04:30pm 23.5 21.1 9.9 42 7.4 NNE 13 19 7 10 1020.1 1020.1 0.0
27/04:00pm 24.0 21.3 8.8 38 8.1 NNE 13 17 7 9 1020.0 1020.0 0.0
27/03:30pm 24.3 21.5 8.7 37 8.4 NNE 13 17 7 9 1019.7 1019.7 0.0
27/03:00pm 24.6 21.8 8.5 36 8.6 NNE 13 20 7 11 1019.5 1019.5 0.0
27/02:30pm 25.2 21.9 8.2 34 9.1 NNE 15 20 8 11 1019.7 1019.7 0.0
27/02:00pm 25.1 21.8 8.1 34 9.0 NNE 15 20 8 11 1020.1 1020.1 0.0
27/01:30pm 25.0 21.4 6.7 31 9.5 NNE 15 20 8 11 1020.7 1020.7 0.0
27/01:00pm 24.6 21.8 8.5 36 8.6 NNE 13 19 7 10 1021.3 1021.3 0.0
27/12:30pm 24.7 22.4 7.4 33 9.1 E 9 13 5 7 1022.0 1022.0 0.0
27/12:00pm 24.2 21.0 6.9 33 9.0 NE 13 19 7 10 1022.5 1022.5 0.0
27/11:30am 24.7 22.9 9.4 38 8.3 NE 9 15 5 8 1022.8 1022.8 0.0
27/11:00am 23.3 21.6 7.4 36 8.3 ESE 6 15 3 8 1023.2 1023.2 0.0
27/10:30am 22.4 21.2 9.6 44 6.9 NNW 6 11 3 6 1023.6 1023.6 0.0
27/10:00am 21.3 21.2 12.2 56 5.1 SSE 4 9 2 5 1023.7 1023.7 0.0
27/09:30am 19.4 19.9 12.7 65 3.8 WSW 2 7 1 4 1023.8 1023.8 0.0
27/09:00am 17.3 16.7 11.8 70 3.0 N 6 7 3 4 1023.7 1023.7 0.0
27/08:30am 15.4 15.9 11.6 78 2.0 CALM 0 4 0 2 1023.4 1023.4 0.0
27/08:00am 13.2 12.1 10.7 85 1.3 SSE 7 9 4 5 1023.1 1023.1 0.0
27/07:30am 9.6 8.1 8.4 92 0.6 S 6 7 3 4 1022.7 1022.7 0.0
27/07:00am 8.2 6.7 7.0 92 0.6 S 4 7 2 4 1022.1 1022.1 0.0
27/06:30am 8.0 7.3 6.8 92 0.6 CALM 0 0 0 0 1021.8 1021.8 0.0
27/06:00am 8.0 7.2 6.6 91 0.6 CALM 0 0 0 0 1021.5 1021.5 0.0
27/05:30am 8.7 7.0 7.5 92 0.6 S 6 9 3 5 1021.5 1021.5 0.0
27/05:00am 9.0 7.4 7.8 92 0.6 SW 6 6 3 3 1021.4 1021.4 0.0
27/04:30am 9.1 8.6 7.9 92 0.6 CALM 0 0 0 0 1021.5 1021.5 0.0
27/04:00am 8.6 7.3 6.2 85 1.1 SSW 2 6 1 3 1021.4 1021.4 0.0
27/03:30am 10.6 9.7 9.4 92 0.6 SSW 4 6 2 3 1021.5 1021.5 0.0
27/03:00am 11.3 10.9 9.6 89 0.9 S 2 6 1 3 1021.6 1021.6 0.0
27/02:30am 11.9 10.8 10.0 88 1.0 SW 6 7 3 4 1021.6 1021.6 0.0
27/02:00am 12.3 11.4 10.7 90 0.8 SSW 6 7 3 4 1021.6 1021.6 0.0
27/01:30am 12.0 11.9 9.6 85 1.2 CALM 0 6 0 3 1021.7 1021.7 0.0
27/01:00am 12.7 11.5 10.2 85 1.3 WSW 7 9 4 5 1021.7 1021.7 0.0
27/12:30am 12.8 11.8 10.2 84 1.3 WSW 6 7 3 4 1021.8 1021.8 0.0
27/12:00am 12.8 11.5 9.3 79 1.8 SW 6 7 3 4 1021.9 1021.9 0.0
 
Date/Time
EST
Temp
°C
App
Temp
°C
Dew
Point
°C
Rel
Hum
%
Delta-T
°C
Wind Press
QNH
hPa
Press
MSL
hPa
Rain since
9am
mm
Dir  Spd
km/h
Gust
km/h
Spd
kts
Gust
kts
26/11:30pm 13.0 11.7 9.1 77 2.0 WSW 6 7 3 4 1022.1 1022.1 0.0
26/11:00pm 13.5 12.2 9.2 75 2.2 SW 6 7 3 4 1022.2 1022.2 0.0
26/10:30pm 13.3 11.9 9.0 75 2.2 SW 6 7 3 4 1022.2 1022.2 0.0
26/10:00pm 13.6 13.5 9.6 77 2.0 CALM 0 0 0 0 1022.0 1022.0 0.0
26/09:30pm 14.9 13.9 10.3 74 2.4 SW 6 7 3 4 1022.0 1022.0 0.0
26/09:00pm 15.5 14.5 11.1 75 2.3 WSW 7 11 4 6 1021.8 1021.8 0.0
26/08:30pm 16.1 15.8 11.5 74 2.5 WSW 4 7 2 4 1021.8 1021.8 0.0
26/08:00pm 16.0 15.9 12.0 77 2.2 WSW 4 7 2 4 1021.7 1021.7 0.0
26/07:30pm 16.5 17.2 12.1 75 2.4 CALM 0 6 0 3 1021.6 1021.6 0.0
26/07:00pm 16.9 17.4 11.6 71 2.9 CALM 0 2 0 1 1021.3 1021.3 0.0
26/06:30pm 18.7 17.8 12.5 67 3.5 NNE 9 11 5 6 1020.9 1020.9 0.0
26/06:00pm 19.5 18.4 12.0 62 4.2 NNE 9 11 5 6 1020.5 1020.5 0.0
26/05:30pm 21.0 19.8 12.7 59 4.7 NNE 11 17 6 9 1020.1 1020.1 0.0
26/05:00pm 23.2 21.2 8.5 39 7.8 NNE 9 13 5 7 1019.9 1019.9 0.0
26/04:30pm 24.1 21.0 5.5 30 9.4 NNE 11 15 6 8 1019.9 1019.9 0.0
26/04:00pm 24.4 20.8 6.6 32 9.2 NNE 15 20 8 11 1019.8 1019.8 0.0
26/03:30pm 25.0 21.4 5.2 28 10.0 NE 13 22 7 12 1019.6 1019.6 0.0
26/03:00pm 25.5 21.7 4.0 25 10.7 ENE 13 24 7 13 1019.6 1019.6 0.0
26/02:30pm 25.2 21.2 2.6 23 10.9 ENE 13 22 7 12 1019.7 1019.7 0.0
26/02:00pm 25.4 21.2 1.5 21 11.3 E 13 22 7 12 1020.0 1020.0 0.0
26/01:30pm 25.0 21.1 3.6 25 10.5 ESE 13 20 7 11 1020.5 1020.5 0.0
26/01:00pm 25.1 21.1 3.1 24 10.7 E 13 24 7 13 1020.8 1020.8 0.0
26/12:30pm 24.9 21.2 2.4 23 10.8 ENE 11 19 6 10 1021.3 1021.3 0.0
26/12:00pm 24.6 19.9 0.8 21 11.0 E 15 24 8 13 1021.8 1021.8 0.0
26/11:30am 24.7 21.8 6.4 31 9.5 ESE 11 20 6 11 1022.3 1022.3 0.0
26/11:00am 23.9 21.0 6.7 33 8.9 ESE 11 20 6 11 1022.7 1022.7 0.0
26/10:30am 22.9 19.9 7.8 38 7.9 SE 13 20 7 11 1022.8 1022.8 0.0
26/10:00am 21.9 19.6 10.4 48 6.3 SSE 13 19 7 10 1023.0 1023.0 0.0
26/09:30am 20.0 18.2 12.0 60 4.5 S 13 17 7 9 1023.1 1023.1 0.0
26/09:00am 18.0 15.6 11.3 65 3.6 S 15 22 8 12 1023.1 1023.1 0.0
26/08:30am 16.1 13.9 10.8 71 2.8 S 13 20 7 11 1023.0 1023.0 0.0
26/08:00am 13.3 11.8 10.5 83 1.5 SSW 9 11 5 6 1022.9 1022.9 0.0
26/07:30am 10.5 9.1 8.8 89 0.8 SW 6 9 3 5 1022.6 1022.6 0.0
26/07:00am 8.2 6.4 7.1 93 0.5 SSW 6 7 3 4 1022.3 1022.3 0.0
26/06:30am 7.8 5.9 6.6 92 0.6 SSW 6 7 3 4 1022.1 1022.1 0.0
26/06:00am 8.2 6.6 6.5 89 0.8 S 4 7 2 4 1022.0 1022.0 0.0
26/05:30am 8.8 7.3 6.6 86 1.0 S 4 6 2 3 1021.7 1021.7 0.0
26/05:00am 10.3 8.5 8.1 86 1.1 S 7 7 4 4 1021.4 1021.4 0.0
26/04:30am 10.7 9.2 8.6 87 1.0 S 6 7 3 4 1021.4 1021.4 0.0
26/04:00am 9.6 8.0 8.0 90 0.8 S 6 7 3 4 1021.4 1021.4 0.0
26/03:30am 9.5 9.1 8.1 91 0.7 CALM 0 0 0 0 1021.5 1021.5 0.0
26/03:00am 9.4 8.8 7.5 88 0.9 CALM 0 0 0 0 1021.5 1021.5 0.0
26/02:30am 9.9 8.9 7.5 85 1.1 SW 2 7 1 4 1021.6 1021.6 0.0
26/02:00am 11.0 9.5 8.6 85 1.2 SW 6 9 3 5 1021.7 1021.7 0.0
26/01:30am 11.8 10.5 9.2 84 1.3 SSW 6 7 3 4 1021.8 1021.8 0.0
26/01:00am 12.6 11.4 9.6 82 1.5 SW 6 7 3 4 1021.9 1021.9 0.0
26/12:30am 12.7 11.4 9.9 83 1.4 SW 7 9 4 5 1022.0 1022.0 0.0
26/12:00am 13.0 11.8 10.4 84 1.3 WSW 7 9 4 5 1022.2 1022.2 0.0
 
Date/Time
EST
Temp
°C
App
Temp
°C
Dew
Point
°C
Rel
Hum
%
Delta-T
°C
Wind Press
QNH
hPa
Press
MSL
hPa
Rain since
9am
mm
Dir  Spd
km/h
Gust
km/h
Spd
kts
Gust
kts
25/11:30pm 12.3 11.2 9.9 85 1.2 SW 6 7 3 4 1022.3 1022.3 0.0
25/11:00pm 12.3 11.2 9.9 85 1.2 SW 6 7 3 4 1022.5 1022.5 0.0
25/10:30pm 12.1 12.0 9.3 83 1.4 CALM 0 0 0 0 1022.5 1022.5 0.0
25/10:00pm 13.0 13.1 10.2 83 1.4 CALM 0 0 0 0 1022.4 1022.4 0.0
25/09:30pm 13.2 13.3 10.2 82 1.6 CALM 0 0 0 0 1022.5 1022.5 0.0
25/09:00pm 13.5 13.4 10.7 83 1.5 WSW 2 7 1 4 1022.4 1022.4 0.0
25/08:30pm 14.0 14.2 10.6 80 1.8 CALM 0 0 0 0 1022.2 1022.2 0.0
25/08:00pm 15.0 15.1 11.4 79 1.9 WSW 2 6 1 3 1022.0 1022.0 0.0
25/07:30pm 15.6 16.2 11.8 78 2.1 CALM 0 0 0 0 1021.7 1021.7 0.0
25/07:00pm 16.8 17.5 12.1 74 2.6 CALM 0 0 0 0 1021.5 1021.5 0.0
25/06:30pm 17.9 18.7 12.4 70 3.1 CALM 0 0 0 0 1021.2 1021.2 0.0
25/06:00pm 19.2 18.4 12.9 67 3.5 N 9 13 5 7 1020.8 1020.8 0.0
25/05:30pm 20.4 18.8 12.9 62 4.3 NNE 13 19 7 10 1020.5 1020.5 0.0
25/05:00pm 21.6 18.9 11.6 53 5.6 NNE 17 26 9 14 1020.3 1020.3 0.0
25/04:30pm 22.9 19.4 10.3 45 6.9 N 19 24 10 13 1019.9 1019.9 0.0
25/04:00pm 23.6 20.1 8.8 39 7.9 NNE 17 22 9 12 1019.5 1019.5 0.0
25/03:30pm 24.3 21.1 9.8 40 7.9 NNE 17 22 9 12 1019.4 1019.4 0.0
25/03:00pm 25.0 21.7 8.1 34 9.0 NNE 15 22 8 12 1019.4 1019.4 0.0
25/02:30pm 24.9 21.8 7.1 32 9.3 NNE 13 17 7 9 1019.5 1019.5 0.0
25/02:00pm 25.1 21.2 5.3 28 10.0 NE 15 20 8 11 1019.8 1019.8 0.0
25/01:30pm 24.7 21.4 6.4 31 9.5 ESE 13 19 7 10 1020.1 1020.1 0.0
25/01:00pm 24.6 20.8 7.7 34 8.9 NE 17 24 9 13 1020.5 1020.5 0.0
25/12:30pm 24.6 22.2 8.5 36 8.6 NE 11 20 6 11 1021.1 1021.1 0.0
25/12:00pm 24.1 21.6 8.1 36 8.5 ESE 11 17 6 9 1021.8 1021.8 0.0
25/11:30am 23.2 20.7 8.1 38 8.0 ESE 11 19 6 10 1022.5 1022.5 0.0
25/11:00am 23.5 22.3 10.2 43 7.3 E 7 15 4 8 1023.0 1023.0 0.0

Other Formats:

Comma delimited format used in spreadsheet applications
http://www.bom.gov.au/fwo/IDQ60801/IDQ60801.95369.axf

JavaScript Object Notation format (JSON) in row-major order
http://www.bom.gov.au/fwo/IDQ60801/IDQ60801.95369.json